sensor_id;sensor_type;location;lat;lon;timestamp;temperature;humidity
21061;DHT22;10689;50.836;3.266;2022-12-07T00:01:17;5.60;99.90
21061;DHT22;10689;50.836;3.266;2022-12-07T00:03:45;5.50;99.90
21061;DHT22;10689;50.836;3.266;2022-12-07T00:06:17;5.50;99.90
21061;DHT22;10689;50.836;3.266;2022-12-07T00:08:52;5.50;99.90
21061;DHT22;10689;50.836;3.266;2022-12-07T00:11:55;5.60;99.90
21061;DHT22;10689;50.836;3.266;2022-12-07T00:15:06;5.60;99.90
21061;DHT22;10689;50.836;3.266;2022-12-07T00:17:38;5.60;99.90
21061;DHT22;10689;50.836;3.266;2022-12-07T00:20:04;5.60;99.90
21061;DHT22;10689;50.836;3.266;2022-12-07T00:22:36;5.60;99.90
21061;DHT22;10689;50.836;3.266;2022-12-07T00:25:36;5.60;99.90
21061;DHT22;10689;50.836;3.266;2022-12-07T00:28:02;5.60;99.90
21061;DHT22;10689;50.836;3.266;2022-12-07T00:33:40;5.70;99.90
21061;DHT22;10689;50.836;3.266;2022-12-07T00:36:12;5.60;99.90
21061;DHT22;10689;50.836;3.266;2022-12-07T00:38:49;5.70;99.90
21061;DHT22;10689;50.836;3.266;2022-12-07T00:41:35;5.60;99.90
21061;DHT22;10689;50.836;3.266;2022-12-07T00:44:01;5.70;99.90
21061;DHT22;10689;50.836;3.266;2022-12-07T00:46:31;5.70;99.90
21061;DHT22;10689;50.836;3.266;2022-12-07T00:49:03;5.80;99.90
21061;DHT22;10689;50.836;3.266;2022-12-07T00:51:34;5.80;99.90
21061;DHT22;10689;50.836;3.266;2022-12-07T00:54:16;5.90;99.90
21061;DHT22;10689;50.836;3.266;2022-12-07T00:56:42;5.90;99.90
21061;DHT22;10689;50.836;3.266;2022-12-07T00:59:14;5.90;99.90
21061;DHT22;10689;50.836;3.266;2022-12-07T01:01:56;6.00;99.90
21061;DHT22;10689;50.836;3.266;2022-12-07T01:05:06;6.00;99.90
21061;DHT22;10689;50.836;3.266;2022-12-07T01:07:36;5.90;99.90
21061;DHT22;10689;50.836;3.266;2022-12-07T01:10:05;5.70;99.90
21061;DHT22;10689;50.836;3.266;2022-12-07T01:12:37;5.70;99.90
21061;DHT22;10689;50.836;3.266;2022-12-07T01:15:06;5.60;99.90
21061;DHT22;10689;50.836;3.266;2022-12-07T01:17:32;5.60;99.90
21061;DHT22;10689;50.836;3.266;2022-12-07T01:20:05;5.60;99.90
21061;DHT22;10689;50.836;3.266;2022-12-07T01:22:52;5.70;99.90
21061;DHT22;10689;50.836;3.266;2022-12-07T01:25:24;5.70;99.90
21061;DHT22;10689;50.836;3.266;2022-12-07T01:27:56;5.60;99.90
21061;DHT22;10689;50.836;3.266;2022-12-07T01:30:53;5.50;99.90
21061;DHT22;10689;50.836;3.266;2022-12-07T01:36:55;5.70;99.90
21061;DHT22;10689;50.836;3.266;2022-12-07T01:39:48;5.60;99.90
21061;DHT22;10689;50.836;3.266;2022-12-07T01:42:18;5.50;99.90
21061;DHT22;10689;50.836;3.266;2022-12-07T01:47:59;5.50;99.90
21061;DHT22;10689;50.836;3.266;2022-12-07T01:50:34;5.50;99.90
21061;DHT22;10689;50.836;3.266;2022-12-07T01:53:28;5.60;99.90
21061;DHT22;10689;50.836;3.266;2022-12-07T01:55:59;5.60;99.90
21061;DHT22;10689;50.836;3.266;2022-12-07T01:58:26;5.60;99.90
21061;DHT22;10689;50.836;3.266;2022-12-07T02:01:08;5.70;99.90
21061;DHT22;10689;50.836;3.266;2022-12-07T02:03:43;5.80;99.90
21061;DHT22;10689;50.836;3.266;2022-12-07T02:06:16;5.80;99.90
21061;DHT22;10689;50.836;3.266;2022-12-07T02:09:03;5.70;99.90
21061;DHT22;10689;50.836;3.266;2022-12-07T02:15:02;5.70;99.90
21061;DHT22;10689;50.836;3.266;2022-12-07T02:34:09;5.60;99.90
21061;DHT22;10689;50.836;3.266;2022-12-07T02:37:17;5.60;99.90
21061;DHT22;10689;50.836;3.266;2022-12-07T02:45:39;5.50;99.90
21061;DHT22;10689;50.836;3.266;2022-12-07T02:48:07;5.60;99.90
21061;DHT22;10689;50.836;3.266;2022-12-07T02:50:53;5.60;99.90
21061;DHT22;10689;50.836;3.266;2022-12-07T02:53:40;5.60;99.90
21061;DHT22;10689;50.836;3.266;2022-12-07T02:56:44;5.70;99.90
21061;DHT22;10689;50.836;3.266;2022-12-07T03:03:00;5.90;99.90
21061;DHT22;10689;50.836;3.266;2022-12-07T03:06:04;6.00;99.90
21061;DHT22;10689;50.836;3.266;2022-12-07T03:11:58;5.90;99.90
21061;DHT22;10689;50.836;3.266;2022-12-07T03:18:20;5.70;99.90
21061;DHT22;10689;50.836;3.266;2022-12-07T03:21:16;5.60;99.90
21061;DHT22;10689;50.836;3.266;2022-12-07T03:23:49;5.50;99.90
21061;DHT22;10689;50.836;3.266;2022-12-07T03:30:18;5.40;99.90
21061;DHT22;10689;50.836;3.266;2022-12-07T03:36:31;5.40;99.90
21061;DHT22;10689;50.836;3.266;2022-12-07T03:41:57;5.30;99.90
21061;DHT22;10689;50.836;3.266;2022-12-07T03:44:24;5.30;99.90
21061;DHT22;10689;50.836;3.266;2022-12-07T03:47:22;5.30;99.90
21061;DHT22;10689;50.836;3.266;2022-12-07T03:50:31;5.30;99.90
21061;DHT22;10689;50.836;3.266;2022-12-07T03:56:43;5.60;99.90
21061;DHT22;10689;50.836;3.266;2022-12-07T03:59:40;5.60;99.90
21061;DHT22;10689;50.836;3.266;2022-12-07T04:02:07;5.60;99.90
21061;DHT22;10689;50.836;3.266;2022-12-07T04:04:41;5.70;99.90
21061;DHT22;10689;50.836;3.266;2022-12-07T04:07:07;5.80;99.90
21061;DHT22;10689;50.836;3.266;2022-12-07T04:09:38;6.00;99.90
21061;DHT22;10689;50.836;3.266;2022-12-07T04:12:46;5.90;99.90
21061;DHT22;10689;50.836;3.266;2022-12-07T04:15:24;6.00;99.90
21061;DHT22;10689;50.836;3.266;2022-12-07T04:17:58;6.00;99.90
21061;DHT22;10689;50.836;3.266;2022-12-07T04:20:45;6.10;99.90
21061;DHT22;10689;50.836;3.266;2022-12-07T04:23:17;6.10;99.90
21061;DHT22;10689;50.836;3.266;2022-12-07T04:25:53;6.00;99.90
21061;DHT22;10689;50.836;3.266;2022-12-07T04:28:26;5.90;99.90
21061;DHT22;10689;50.836;3.266;2022-12-07T04:30:55;5.90;99.90
21061;DHT22;10689;50.836;3.266;2022-12-07T04:33:34;5.70;99.90
21061;DHT22;10689;50.836;3.266;2022-12-07T04:36:04;5.80;99.90
21061;DHT22;10689;50.836;3.266;2022-12-07T04:38:33;5.70;99.90
21061;DHT22;10689;50.836;3.266;2022-12-07T04:41:12;5.60;99.90
21061;DHT22;10689;50.836;3.266;2022-12-07T04:43:38;5.70;99.90
21061;DHT22;10689;50.836;3.266;2022-12-07T04:46:21;5.60;99.90
21061;DHT22;10689;50.836;3.266;2022-12-07T04:48:52;5.50;99.90
21061;DHT22;10689;50.836;3.266;2022-12-07T04:51:29;5.50;99.90
21061;DHT22;10689;50.836;3.266;2022-12-07T04:54:04;5.40;99.90
21061;DHT22;10689;50.836;3.266;2022-12-07T04:56:43;5.30;99.90
21061;DHT22;10689;50.836;3.266;2022-12-07T04:59:15;5.20;99.90
21061;DHT22;10689;50.836;3.266;2022-12-07T05:01:44;5.20;99.90
21061;DHT22;10689;50.836;3.266;2022-12-07T05:04:10;5.20;99.90
21061;DHT22;10689;50.836;3.266;2022-12-07T05:06:44;5.30;99.90
21061;DHT22;10689;50.836;3.266;2022-12-07T05:12:25;5.50;99.90
21061;DHT22;10689;50.836;3.266;2022-12-07T05:15:14;5.70;99.90
21061;DHT22;10689;50.836;3.266;2022-12-07T05:17:57;5.70;99.90
21061;DHT22;10689;50.836;3.266;2022-12-07T05:20:49;5.60;99.90
21061;DHT22;10689;50.836;3.266;2022-12-07T05:23:24;5.60;99.90
21061;DHT22;10689;50.836;3.266;2022-12-07T05:25:56;5.60;99.90
21061;DHT22;10689;50.836;3.266;2022-12-07T05:28:42;5.70;99.90
21061;DHT22;10689;50.836;3.266;2022-12-07T05:31:36;5.60;99.90
21061;DHT22;10689;50.836;3.266;2022-12-07T05:34:13;5.40;99.90
21061;DHT22;10689;50.836;3.266;2022-12-07T05:37:19;5.40;99.90
21061;DHT22;10689;50.836;3.266;2022-12-07T05:40:08;5.20;99.90
21061;DHT22;10689;50.836;3.266;2022-12-07T05:42:40;5.20;99.90
21061;DHT22;10689;50.836;3.266;2022-12-07T05:45:12;5.30;99.90
21061;DHT22;10689;50.836;3.266;2022-12-07T05:48:14;5.30;99.90
21061;DHT22;10689;50.836;3.266;2022-12-07T05:50:58;5.20;99.90
21061;DHT22;10689;50.836;3.266;2022-12-07T05:53:25;5.10;99.90
21061;DHT22;10689;50.836;3.266;2022-12-07T05:55:53;5.10;99.90
21061;DHT22;10689;50.836;3.266;2022-12-07T05:58:29;5.00;99.90
21061;DHT22;10689;50.836;3.266;2022-12-07T06:01:23;5.00;99.90
21061;DHT22;10689;50.836;3.266;2022-12-07T06:03:48;4.90;99.90
21061;DHT22;10689;50.836;3.266;2022-12-07T06:06:19;4.80;99.90
21061;DHT22;10689;50.836;3.266;2022-12-07T06:09:07;4.80;99.90
21061;DHT22;10689;50.836;3.266;2022-12-07T06:12:02;4.70;99.90
21061;DHT22;10689;50.836;3.266;2022-12-07T06:14:55;4.70;99.90
21061;DHT22;10689;50.836;3.266;2022-12-07T06:17:47;4.70;99.90
21061;DHT22;10689;50.836;3.266;2022-12-07T06:20:22;4.70;99.90
21061;DHT22;10689;50.836;3.266;2022-12-07T06:23:08;4.70;99.90
21061;DHT22;10689;50.836;3.266;2022-12-07T06:26:06;4.80;99.90
21061;DHT22;10689;50.836;3.266;2022-12-07T06:28:40;5.00;99.90
21061;DHT22;10689;50.836;3.266;2022-12-07T06:31:06;5.00;99.90
21061;DHT22;10689;50.836;3.266;2022-12-07T06:33:33;5.00;99.90
21061;DHT22;10689;50.836;3.266;2022-12-07T06:39:25;5.10;99.90
21061;DHT22;10689;50.836;3.266;2022-12-07T06:42:06;5.10;99.90
21061;DHT22;10689;50.836;3.266;2022-12-07T06:45:02;5.20;99.90
21061;DHT22;10689;50.836;3.266;2022-12-07T06:47:31;5.20;99.90
21061;DHT22;10689;50.836;3.266;2022-12-07T06:50:05;5.20;99.90
21061;DHT22;10689;50.836;3.266;2022-12-07T06:52:33;5.30;99.90
21061;DHT22;10689;50.836;3.266;2022-12-07T06:54:59;5.10;99.90
21061;DHT22;10689;50.836;3.266;2022-12-07T06:57:43;5.00;99.90
21061;DHT22;10689;50.836;3.266;2022-12-07T07:03:35;4.90;99.90
21061;DHT22;10689;50.836;3.266;2022-12-07T07:06:23;4.90;99.90
21061;DHT22;10689;50.836;3.266;2022-12-07T07:08:51;4.80;99.90
21061;DHT22;10689;50.836;3.266;2022-12-07T07:11:22;4.70;99.90
21061;DHT22;10689;50.836;3.266;2022-12-07T07:14:00;4.70;99.90
21061;DHT22;10689;50.836;3.266;2022-12-07T07:16:34;4.80;99.90
21061;DHT22;10689;50.836;3.266;2022-12-07T07:19:28;4.80;99.90
21061;DHT22;10689;50.836;3.266;2022-12-07T07:22:14;4.80;99.90
21061;DHT22;10689;50.836;3.266;2022-12-07T07:24:56;4.70;99.90
21061;DHT22;10689;50.836;3.266;2022-12-07T07:27:28;4.70;99.90
21061;DHT22;10689;50.836;3.266;2022-12-07T07:30:03;4.80;99.90
21061;DHT22;10689;50.836;3.266;2022-12-07T07:32:35;4.90;99.90
21061;DHT22;10689;50.836;3.266;2022-12-07T07:35:07;5.00;99.90
21061;DHT22;10689;50.836;3.266;2022-12-07T07:37:34;5.10;99.90
21061;DHT22;10689;50.836;3.266;2022-12-07T07:40:11;5.00;99.90
21061;DHT22;10689;50.836;3.266;2022-12-07T07:42:40;5.00;99.90
21061;DHT22;10689;50.836;3.266;2022-12-07T07:45:09;5.00;99.90
21061;DHT22;10689;50.836;3.266;2022-12-07T07:47:35;5.10;99.90
21061;DHT22;10689;50.836;3.266;2022-12-07T07:50:07;5.10;99.90
21061;DHT22;10689;50.836;3.266;2022-12-07T07:53:16;5.10;99.90
21061;DHT22;10689;50.836;3.266;2022-12-07T07:55:54;5.10;99.90
21061;DHT22;10689;50.836;3.266;2022-12-07T07:58:28;5.10;99.90
21061;DHT22;10689;50.836;3.266;2022-12-07T08:01:09;5.10;99.90
21061;DHT22;10689;50.836;3.266;2022-12-07T08:03:43;5.20;99.90
21061;DHT22;10689;50.836;3.266;2022-12-07T08:06:25;5.30;99.90
21061;DHT22;10689;50.836;3.266;2022-12-07T08:09:00;5.30;99.90
21061;DHT22;10689;50.836;3.266;2022-12-07T08:11:32;5.40;99.90
21061;DHT22;10689;50.836;3.266;2022-12-07T08:14:22;5.50;99.90
21061;DHT22;10689;50.836;3.266;2022-12-07T08:17:07;5.60;99.90
21061;DHT22;10689;50.836;3.266;2022-12-07T08:19:54;5.70;99.90
21061;DHT22;10689;50.836;3.266;2022-12-07T08:22:28;5.70;99.90
21061;DHT22;10689;50.836;3.266;2022-12-07T08:24:57;5.70;99.90
21061;DHT22;10689;50.836;3.266;2022-12-07T08:27:28;5.80;99.90
21061;DHT22;10689;50.836;3.266;2022-12-07T08:29:58;5.80;99.90
21061;DHT22;10689;50.836;3.266;2022-12-07T08:32:37;5.80;99.90
21061;DHT22;10689;50.836;3.266;2022-12-07T08:35:15;5.80;99.90
21061;DHT22;10689;50.836;3.266;2022-12-07T08:40:30;5.80;99.90
21061;DHT22;10689;50.836;3.266;2022-12-07T08:42:56;6.00;99.90
21061;DHT22;10689;50.836;3.266;2022-12-07T08:51:49;6.20;99.90
21061;DHT22;10689;50.836;3.266;2022-12-07T08:54:19;6.20;99.90
21061;DHT22;10689;50.836;3.266;2022-12-07T08:56:50;6.20;99.90
21061;DHT22;10689;50.836;3.266;2022-12-07T08:59:20;6.30;99.90
21061;DHT22;10689;50.836;3.266;2022-12-07T09:01:46;6.30;99.90
21061;DHT22;10689;50.836;3.266;2022-12-07T09:04:12;6.40;99.90
21061;DHT22;10689;50.836;3.266;2022-12-07T09:06:38;6.30;99.90
21061;DHT22;10689;50.836;3.266;2022-12-07T09:09:06;6.30;99.90
21061;DHT22;10689;50.836;3.266;2022-12-07T09:11:33;6.50;99.90
21061;DHT22;10689;50.836;3.266;2022-12-07T09:13:59;6.60;99.90
21061;DHT22;10689;50.836;3.266;2022-12-07T09:16:31;6.70;99.90
21061;DHT22;10689;50.836;3.266;2022-12-07T09:18:57;6.80;99.90
21061;DHT22;10689;50.836;3.266;2022-12-07T09:21:30;6.80;99.90
21061;DHT22;10689;50.836;3.266;2022-12-07T09:24:04;6.80;99.90
21061;DHT22;10689;50.836;3.266;2022-12-07T09:26:30;6.70;99.90
21061;DHT22;10689;50.836;3.266;2022-12-07T09:28:56;6.60;99.90
21061;DHT22;10689;50.836;3.266;2022-12-07T09:31:21;6.70;99.90
21061;DHT22;10689;50.836;3.266;2022-12-07T09:33:59;6.60;99.90
21061;DHT22;10689;50.836;3.266;2022-12-07T09:36:25;6.50;99.90
21061;DHT22;10689;50.836;3.266;2022-12-07T09:38:51;6.50;99.90
21061;DHT22;10689;50.836;3.266;2022-12-07T09:41:17;6.70;99.90
21061;DHT22;10689;50.836;3.266;2022-12-07T09:43:43;6.60;99.90
21061;DHT22;10689;50.836;3.266;2022-12-07T09:46:16;6.60;99.90
21061;DHT22;10689;50.836;3.266;2022-12-07T09:48:57;6.70;99.90
21061;DHT22;10689;50.836;3.266;2022-12-07T09:51:26;6.90;99.90
21061;DHT22;10689;50.836;3.266;2022-12-07T09:53:58;6.70;99.90
21061;DHT22;10689;50.836;3.266;2022-12-07T09:56:28;6.80;99.90
21061;DHT22;10689;50.836;3.266;2022-12-07T09:59:12;6.80;99.90
21061;DHT22;10689;50.836;3.266;2022-12-07T10:01:41;6.90;99.90
21061;DHT22;10689;50.836;3.266;2022-12-07T10:04:28;7.00;99.90
21061;DHT22;10689;50.836;3.266;2022-12-07T10:06:54;7.00;99.90
21061;DHT22;10689;50.836;3.266;2022-12-07T10:09:21;7.10;99.90
21061;DHT22;10689;50.836;3.266;2022-12-07T10:12:19;7.20;99.90
21061;DHT22;10689;50.836;3.266;2022-12-07T10:15:03;7.10;99.90
21061;DHT22;10689;50.836;3.266;2022-12-07T10:18:13;7.00;99.90
21061;DHT22;10689;50.836;3.266;2022-12-07T10:21:16;6.70;99.90
21061;DHT22;10689;50.836;3.266;2022-12-07T10:24:13;6.60;99.90
21061;DHT22;10689;50.836;3.266;2022-12-07T10:27:01;6.70;99.90
21061;DHT22;10689;50.836;3.266;2022-12-07T10:29:40;6.80;99.90
21061;DHT22;10689;50.836;3.266;2022-12-07T10:32:36;7.00;99.90
21061;DHT22;10689;50.836;3.266;2022-12-07T10:37:50;7.30;99.90
21061;DHT22;10689;50.836;3.266;2022-12-07T10:40:36;7.30;99.90
21061;DHT22;10689;50.836;3.266;2022-12-07T10:52:02;7.70;99.90
21061;DHT22;10689;50.836;3.266;2022-12-07T11:01:15;7.90;99.90
21061;DHT22;10689;50.836;3.266;2022-12-07T11:04:04;7.80;99.90
21061;DHT22;10689;50.836;3.266;2022-12-07T11:09:43;7.70;99.90
21061;DHT22;10689;50.836;3.266;2022-12-07T11:12:17;7.90;99.90
21061;DHT22;10689;50.836;3.266;2022-12-07T11:15:11;7.90;99.90
21061;DHT22;10689;50.836;3.266;2022-12-07T11:17:56;8.10;99.90
21061;DHT22;10689;50.836;3.266;2022-12-07T11:20:37;8.20;99.90
21061;DHT22;10689;50.836;3.266;2022-12-07T11:35:05;7.70;99.90
21061;DHT22;10689;50.836;3.266;2022-12-07T11:37:13;7.60;99.90
21061;DHT22;10689;50.836;3.266;2022-12-07T11:39:50;7.60;99.90
21061;DHT22;10689;50.836;3.266;2022-12-07T11:42:33;7.60;99.90
21061;DHT22;10689;50.836;3.266;2022-12-07T11:45:27;7.60;99.90
21061;DHT22;10689;50.836;3.266;2022-12-07T11:48:11;7.50;99.90
21061;DHT22;10689;50.836;3.266;2022-12-07T11:51:02;7.50;99.90
21061;DHT22;10689;50.836;3.266;2022-12-07T11:56:17;7.50;99.90
21061;DHT22;10689;50.836;3.266;2022-12-07T12:03:48;7.90;99.90
21061;DHT22;10689;50.836;3.266;2022-12-07T12:06:18;8.10;99.90
21061;DHT22;10689;50.836;3.266;2022-12-07T12:20:15;8.20;99.90
21061;DHT22;10689;50.836;3.266;2022-12-07T12:26:02;8.30;99.90
21061;DHT22;10689;50.836;3.266;2022-12-07T12:28:54;8.10;99.90
21061;DHT22;10689;50.836;3.266;2022-12-07T12:33:51;8.00;99.90
21061;DHT22;10689;50.836;3.266;2022-12-07T12:47:04;8.00;99.90
21061;DHT22;10689;50.836;3.266;2022-12-07T12:50:23;7.90;99.90
21061;DHT22;10689;50.836;3.266;2022-12-07T12:52:53;7.80;99.90
21061;DHT22;10689;50.836;3.266;2022-12-07T12:55:25;7.60;99.90
21061;DHT22;10689;50.836;3.266;2022-12-07T12:58:28;7.60;99.90
21061;DHT22;10689;50.836;3.266;2022-12-07T13:04:00;7.50;99.90
21061;DHT22;10689;50.836;3.266;2022-12-07T13:08:54;7.50;99.90
21061;DHT22;10689;50.836;3.266;2022-12-07T13:11:36;7.40;99.90
21061;DHT22;10689;50.836;3.266;2022-12-07T13:14:39;7.30;99.90
21061;DHT22;10689;50.836;3.266;2022-12-07T13:20:08;7.30;99.90
21061;DHT22;10689;50.836;3.266;2022-12-07T13:25:33;7.10;99.90
21061;DHT22;10689;50.836;3.266;2022-12-07T13:28:16;7.10;99.90
21061;DHT22;10689;50.836;3.266;2022-12-07T13:33:36;7.10;99.90
21061;DHT22;10689;50.836;3.266;2022-12-07T13:36:02;7.00;99.90
21061;DHT22;10689;50.836;3.266;2022-12-07T13:38:33;7.00;99.90
21061;DHT22;10689;50.836;3.266;2022-12-07T13:41:15;7.00;99.90
21061;DHT22;10689;50.836;3.266;2022-12-07T13:46:46;7.00;99.90
21061;DHT22;10689;50.836;3.266;2022-12-07T13:49:23;7.00;99.90
21061;DHT22;10689;50.836;3.266;2022-12-07T13:51:50;7.10;99.90
21061;DHT22;10689;50.836;3.266;2022-12-07T13:54:20;7.10;99.90
21061;DHT22;10689;50.836;3.266;2022-12-07T13:56:51;7.30;99.90
21061;DHT22;10689;50.836;3.266;2022-12-07T13:59:19;7.40;99.90
21061;DHT22;10689;50.836;3.266;2022-12-07T14:01:50;7.50;99.90
21061;DHT22;10689;50.836;3.266;2022-12-07T14:04:39;7.50;99.90
21061;DHT22;10689;50.836;3.266;2022-12-07T14:07:48;7.80;99.90
21061;DHT22;10689;50.836;3.266;2022-12-07T14:12:52;7.60;99.90
21061;DHT22;10689;50.836;3.266;2022-12-07T14:15:24;7.60;99.90
21061;DHT22;10689;50.836;3.266;2022-12-07T14:17:54;7.80;99.90
21061;DHT22;10689;50.836;3.266;2022-12-07T14:20:37;7.60;99.90
21061;DHT22;10689;50.836;3.266;2022-12-07T14:23:24;7.40;99.90
21061;DHT22;10689;50.836;3.266;2022-12-07T14:25:54;7.40;99.90
21061;DHT22;10689;50.836;3.266;2022-12-07T14:28:34;7.20;99.90
21061;DHT22;10689;50.836;3.266;2022-12-07T14:31:00;6.90;99.90
21061;DHT22;10689;50.836;3.266;2022-12-07T14:33:27;6.80;99.90
21061;DHT22;10689;50.836;3.266;2022-12-07T14:35:58;6.80;99.90
21061;DHT22;10689;50.836;3.266;2022-12-07T14:38:27;6.70;99.90
21061;DHT22;10689;50.836;3.266;2022-12-07T14:40:54;6.50;99.90
21061;DHT22;10689;50.836;3.266;2022-12-07T14:43:40;6.50;99.90
21061;DHT22;10689;50.836;3.266;2022-12-07T14:46:08;6.20;99.90
21061;DHT22;10689;50.836;3.266;2022-12-07T14:48:37;6.10;99.90
21061;DHT22;10689;50.836;3.266;2022-12-07T14:51:04;6.10;99.90
21061;DHT22;10689;50.836;3.266;2022-12-07T14:53:36;6.20;99.90
21061;DHT22;10689;50.836;3.266;2022-12-07T14:56:02;6.30;99.90
21061;DHT22;10689;50.836;3.266;2022-12-07T14:58:34;6.30;99.90
21061;DHT22;10689;50.836;3.266;2022-12-07T15:01:02;6.30;99.90
21061;DHT22;10689;50.836;3.266;2022-12-07T15:03:31;6.30;99.90
21061;DHT22;10689;50.836;3.266;2022-12-07T15:06:00;6.30;99.90
21061;DHT22;10689;50.836;3.266;2022-12-07T15:08:26;6.30;99.90
21061;DHT22;10689;50.836;3.266;2022-12-07T15:10:52;6.40;99.90
21061;DHT22;10689;50.836;3.266;2022-12-07T15:13:18;6.40;99.90
21061;DHT22;10689;50.836;3.266;2022-12-07T15:16:02;6.40;99.90
21061;DHT22;10689;50.836;3.266;2022-12-07T15:18:28;6.40;99.90
21061;DHT22;10689;50.836;3.266;2022-12-07T15:20:55;6.50;99.90
21061;DHT22;10689;50.836;3.266;2022-12-07T15:23:20;6.40;99.90
21061;DHT22;10689;50.836;3.266;2022-12-07T15:25:49;6.30;99.90
21061;DHT22;10689;50.836;3.266;2022-12-07T15:28:15;6.30;99.90
21061;DHT22;10689;50.836;3.266;2022-12-07T15:30:44;6.20;99.90
21061;DHT22;10689;50.836;3.266;2022-12-07T15:33:12;6.10;99.90
21061;DHT22;10689;50.836;3.266;2022-12-07T15:35:39;6.00;99.90
21061;DHT22;10689;50.836;3.266;2022-12-07T15:38:08;6.00;99.90
21061;DHT22;10689;50.836;3.266;2022-12-07T15:40:36;6.10;99.90
21061;DHT22;10689;50.836;3.266;2022-12-07T15:43:03;6.10;99.90
21061;DHT22;10689;50.836;3.266;2022-12-07T15:45:29;5.90;99.90
21061;DHT22;10689;50.836;3.266;2022-12-07T15:47:58;5.70;99.90
21061;DHT22;10689;50.836;3.266;2022-12-07T15:50:28;5.80;99.90
21061;DHT22;10689;50.836;3.266;2022-12-07T15:52:56;5.70;99.90
21061;DHT22;10689;50.836;3.266;2022-12-07T15:55:22;5.80;99.90
21061;DHT22;10689;50.836;3.266;2022-12-07T15:57:47;5.80;99.90
21061;DHT22;10689;50.836;3.266;2022-12-07T16:00:17;5.70;99.90
21061;DHT22;10689;50.836;3.266;2022-12-07T16:02:46;5.70;99.90
21061;DHT22;10689;50.836;3.266;2022-12-07T16:05:12;5.70;99.90
21061;DHT22;10689;50.836;3.266;2022-12-07T16:07:38;5.80;99.90
21061;DHT22;10689;50.836;3.266;2022-12-07T16:10:04;5.80;99.90
21061;DHT22;10689;50.836;3.266;2022-12-07T16:12:33;5.80;99.90
21061;DHT22;10689;50.836;3.266;2022-12-07T16:14:58;5.70;99.90
21061;DHT22;10689;50.836;3.266;2022-12-07T16:17:25;5.70;99.90
21061;DHT22;10689;50.836;3.266;2022-12-07T16:19:53;5.80;99.90
21061;DHT22;10689;50.836;3.266;2022-12-07T16:22:21;5.80;99.90
21061;DHT22;10689;50.836;3.266;2022-12-07T16:24:49;5.80;99.90
21061;DHT22;10689;50.836;3.266;2022-12-07T16:27:15;5.90;99.90
21061;DHT22;10689;50.836;3.266;2022-12-07T16:29:51;5.90;99.90
21061;DHT22;10689;50.836;3.266;2022-12-07T16:32:16;6.00;99.90
21061;DHT22;10689;50.836;3.266;2022-12-07T16:34:42;6.00;99.90
21061;DHT22;10689;50.836;3.266;2022-12-07T16:37:08;6.10;99.90
21061;DHT22;10689;50.836;3.266;2022-12-07T16:39:34;6.10;99.90
21061;DHT22;10689;50.836;3.266;2022-12-07T16:42:02;6.10;99.90
21061;DHT22;10689;50.836;3.266;2022-12-07T16:44:28;6.00;99.90
21061;DHT22;10689;50.836;3.266;2022-12-07T16:46:57;6.10;99.90
21061;DHT22;10689;50.836;3.266;2022-12-07T16:49:22;6.00;99.90
21061;DHT22;10689;50.836;3.266;2022-12-07T16:51:50;6.00;99.90
21061;DHT22;10689;50.836;3.266;2022-12-07T16:54:16;6.00;99.90
21061;DHT22;10689;50.836;3.266;2022-12-07T16:56:41;6.00;99.90
21061;DHT22;10689;50.836;3.266;2022-12-07T16:59:10;5.90;99.90
21061;DHT22;10689;50.836;3.266;2022-12-07T17:01:36;6.00;99.90
21061;DHT22;10689;50.836;3.266;2022-12-07T17:04:03;6.00;99.90
21061;DHT22;10689;50.836;3.266;2022-12-07T17:06:30;6.00;99.90
21061;DHT22;10689;50.836;3.266;2022-12-07T17:08:58;6.00;99.90
21061;DHT22;10689;50.836;3.266;2022-12-07T17:11:28;5.90;99.90
21061;DHT22;10689;50.836;3.266;2022-12-07T17:13:54;5.80;99.90
21061;DHT22;10689;50.836;3.266;2022-12-07T17:16:39;6.00;99.90
21061;DHT22;10689;50.836;3.266;2022-12-07T17:19:10;6.10;99.90
21061;DHT22;10689;50.836;3.266;2022-12-07T17:21:39;6.10;99.90
21061;DHT22;10689;50.836;3.266;2022-12-07T17:24:09;6.10;99.90
21061;DHT22;10689;50.836;3.266;2022-12-07T17:26:36;6.10;99.90
21061;DHT22;10689;50.836;3.266;2022-12-07T17:29:04;6.10;99.90
21061;DHT22;10689;50.836;3.266;2022-12-07T17:31:31;6.00;99.90
21061;DHT22;10689;50.836;3.266;2022-12-07T17:33:57;6.00;99.90
21061;DHT22;10689;50.836;3.266;2022-12-07T17:36:27;5.90;99.90
21061;DHT22;10689;50.836;3.266;2022-12-07T17:38:54;5.80;99.90
21061;DHT22;10689;50.836;3.266;2022-12-07T17:41:27;5.80;99.90
21061;DHT22;10689;50.836;3.266;2022-12-07T17:44:17;5.70;99.90
21061;DHT22;10689;50.836;3.266;2022-12-07T17:46:44;5.70;99.90
21061;DHT22;10689;50.836;3.266;2022-12-07T17:49:12;5.70;99.90
21061;DHT22;10689;50.836;3.266;2022-12-07T17:51:43;5.70;99.90
21061;DHT22;10689;50.836;3.266;2022-12-07T17:54:28;5.70;99.90
21061;DHT22;10689;50.836;3.266;2022-12-07T17:56:54;5.70;99.90
21061;DHT22;10689;50.836;3.266;2022-12-07T17:59:19;5.70;99.90
21061;DHT22;10689;50.836;3.266;2022-12-07T18:01:51;5.70;99.90
21061;DHT22;10689;50.836;3.266;2022-12-07T18:04:28;5.70;99.90
21061;DHT22;10689;50.836;3.266;2022-12-07T18:07:00;5.70;99.90
21061;DHT22;10689;50.836;3.266;2022-12-07T18:09:26;5.80;99.90
21061;DHT22;10689;50.836;3.266;2022-12-07T18:11:52;5.90;99.90
21061;DHT22;10689;50.836;3.266;2022-12-07T18:14:18;5.80;99.90
21061;DHT22;10689;50.836;3.266;2022-12-07T18:16:47;5.70;99.90
21061;DHT22;10689;50.836;3.266;2022-12-07T18:19:16;5.80;99.90
21061;DHT22;10689;50.836;3.266;2022-12-07T18:21:43;5.90;99.90
21061;DHT22;10689;50.836;3.266;2022-12-07T18:24:11;5.80;99.90
21061;DHT22;10689;50.836;3.266;2022-12-07T18:26:37;5.70;99.90
21061;DHT22;10689;50.836;3.266;2022-12-07T18:29:07;5.70;99.90
21061;DHT22;10689;50.836;3.266;2022-12-07T18:31:37;5.70;99.90
21061;DHT22;10689;50.836;3.266;2022-12-07T18:34:10;5.80;99.90
21061;DHT22;10689;50.836;3.266;2022-12-07T18:36:40;5.90;99.90
21061;DHT22;10689;50.836;3.266;2022-12-07T18:39:11;6.10;99.90
21061;DHT22;10689;50.836;3.266;2022-12-07T18:41:38;6.00;99.90
21061;DHT22;10689;50.836;3.266;2022-12-07T18:44:05;6.00;99.90
21061;DHT22;10689;50.836;3.266;2022-12-07T18:46:31;6.00;99.90
21061;DHT22;10689;50.836;3.266;2022-12-07T18:48:57;6.00;99.90
21061;DHT22;10689;50.836;3.266;2022-12-07T18:51:23;6.10;99.90
21061;DHT22;10689;50.836;3.266;2022-12-07T18:53:49;6.00;99.90
21061;DHT22;10689;50.836;3.266;2022-12-07T18:56:20;5.80;99.90
21061;DHT22;10689;50.836;3.266;2022-12-07T18:58:54;5.70;99.90
21061;DHT22;10689;50.836;3.266;2022-12-07T19:01:40;5.70;99.90
21061;DHT22;10689;50.836;3.266;2022-12-07T19:04:06;5.60;99.90
21061;DHT22;10689;50.836;3.266;2022-12-07T19:06:32;5.70;99.90
21061;DHT22;10689;50.836;3.266;2022-12-07T19:08:57;5.60;99.90
21061;DHT22;10689;50.836;3.266;2022-12-07T19:11:27;5.60;99.90
21061;DHT22;10689;50.836;3.266;2022-12-07T19:14:12;5.60;99.90
21061;DHT22;10689;50.836;3.266;2022-12-07T19:16:42;5.60;99.90
21061;DHT22;10689;50.836;3.266;2022-12-07T19:19:09;5.70;99.90
21061;DHT22;10689;50.836;3.266;2022-12-07T19:21:39;5.70;99.90